sensor_id;sensor_type;location;lat;lon;timestamp;P1;durP1;ratioP1;P2;durP2;ratioP2
33108;SDS011;19481;51.118;6.940;2024-01-30T00:03:51;3.55;;;1.60;;
33108;SDS011;19481;51.118;6.940;2024-01-30T00:08:52;1.42;;;1.30;;
33108;SDS011;19481;51.118;6.940;2024-01-30T00:13:54;4.25;;;2.58;;
33108;SDS011;19481;51.118;6.940;2024-01-30T00:18:57;1.92;;;1.83;;
33108;SDS011;19481;51.118;6.940;2024-01-30T00:23:59;2.35;;;1.58;;
33108;SDS011;19481;51.118;6.940;2024-01-30T00:29:01;1.13;;;1.08;;
33108;SDS011;19481;51.118;6.940;2024-01-30T00:34:04;3.42;;;1.50;;
33108;SDS011;19481;51.118;6.940;2024-01-30T00:39:05;5.68;;;1.15;;
33108;SDS011;19481;51.118;6.940;2024-01-30T00:44:09;1.60;;;1.50;;
33108;SDS011;19481;51.118;6.940;2024-01-30T00:49:12;3.17;;;1.70;;
33108;SDS011;19481;51.118;6.940;2024-01-30T00:54:13;3.35;;;1.98;;
33108;SDS011;19481;51.118;6.940;2024-01-30T00:59:15;1.30;;;1.20;;
33108;SDS011;19481;51.118;6.940;2024-01-30T01:04:18;2.78;;;1.17;;
33108;SDS011;19481;51.118;6.940;2024-01-30T01:09:21;2.72;;;1.85;;
33108;SDS011;19481;51.118;6.940;2024-01-30T01:14:22;3.45;;;1.40;;
33108;SDS011;19481;51.118;6.940;2024-01-30T01:19:25;1.60;;;1.38;;
33108;SDS011;19481;51.118;6.940;2024-01-30T01:24:27;1.33;;;1.23;;
33108;SDS011;19481;51.118;6.940;2024-01-30T01:29:29;1.30;;;1.20;;
33108;SDS011;19481;51.118;6.940;2024-01-30T01:34:32;3.22;;;1.80;;
33108;SDS011;19481;51.118;6.940;2024-01-30T01:39:33;3.17;;;1.33;;
33108;SDS011;19481;51.118;6.940;2024-01-30T01:44:35;1.70;;;1.55;;
33108;SDS011;19481;51.118;6.940;2024-01-30T01:49:38;2.35;;;1.60;;
33108;SDS011;19481;51.118;6.940;2024-01-30T01:54:41;1.13;;;1.13;;
33108;SDS011;19481;51.118;6.940;2024-01-30T01:59:43;1.98;;;1.30;;
33108;SDS011;19481;51.118;6.940;2024-01-30T02:04:46;3.13;;;1.42;;
33108;SDS011;19481;51.118;6.940;2024-01-30T02:09:48;2.28;;;1.73;;
33108;SDS011;19481;51.118;6.940;2024-01-30T02:14:49;1.90;;;1.60;;
33108;SDS011;19481;51.118;6.940;2024-01-30T02:19:53;3.78;;;1.63;;
33108;SDS011;19481;51.118;6.940;2024-01-30T02:24:56;1.73;;;1.38;;
33108;SDS011;19481;51.118;6.940;2024-01-30T02:29:57;1.65;;;1.30;;
33108;SDS011;19481;51.118;6.940;2024-01-30T02:34:59;2.92;;;1.65;;
33108;SDS011;19481;51.118;6.940;2024-01-30T02:40:02;2.88;;;1.98;;
33108;SDS011;19481;51.118;6.940;2024-01-30T02:45:04;2.00;;;1.70;;
33108;SDS011;19481;51.118;6.940;2024-01-30T02:50:07;1.90;;;1.42;;
33108;SDS011;19481;51.118;6.940;2024-01-30T02:55:10;1.70;;;1.08;;
33108;SDS011;19481;51.118;6.940;2024-01-30T03:00:12;1.50;;;1.40;;
33108;SDS011;19481;51.118;6.940;2024-01-30T03:05:14;1.33;;;1.23;;
33108;SDS011;19481;51.118;6.940;2024-01-30T03:10:17;2.55;;;1.85;;
33108;SDS011;19481;51.118;6.940;2024-01-30T03:15:19;2.08;;;1.60;;
33108;SDS011;19481;51.118;6.940;2024-01-30T03:20:21;7.95;;;1.80;;
33108;SDS011;19481;51.118;6.940;2024-01-30T03:25:24;2.30;;;1.58;;
33108;SDS011;19481;51.118;6.940;2024-01-30T03:30:25;1.27;;;1.17;;
33108;SDS011;19481;51.118;6.940;2024-01-30T03:35:27;1.35;;;1.25;;
33108;SDS011;19481;51.118;6.940;2024-01-30T03:40:30;3.03;;;1.80;;
33108;SDS011;19481;51.118;6.940;2024-01-30T03:45:31;2.65;;;1.73;;
33108;SDS011;19481;51.118;6.940;2024-01-30T03:50:33;1.42;;;1.30;;
33108;SDS011;19481;51.118;6.940;2024-01-30T03:55:36;3.95;;;1.38;;
33108;SDS011;19481;51.118;6.940;2024-01-30T04:00:37;1.80;;;1.55;;
33108;SDS011;19481;51.118;6.940;2024-01-30T04:05:39;1.58;;;1.20;;
33108;SDS011;19481;51.118;6.940;2024-01-30T04:10:42;1.65;;;1.15;;
33108;SDS011;19481;51.118;6.940;2024-01-30T04:15:44;0.82;;;0.82;;
33108;SDS011;19481;51.118;6.940;2024-01-30T04:20:46;1.80;;;1.13;;
33108;SDS011;19481;51.118;6.940;2024-01-30T04:25:49;1.40;;;1.30;;
33108;SDS011;19481;51.118;6.940;2024-01-30T04:30:50;1.67;;;1.58;;
33108;SDS011;19481;51.118;6.940;2024-01-30T04:35:52;1.55;;;1.10;;
33108;SDS011;19481;51.118;6.940;2024-01-30T04:40:55;1.40;;;1.10;;
33108;SDS011;19481;51.118;6.940;2024-01-30T04:45:56;1.48;;;1.38;;
33108;SDS011;19481;51.118;6.940;2024-01-30T04:50:58;2.03;;;1.27;;
33108;SDS011;19481;51.118;6.940;2024-01-30T04:56:04;0.95;;;0.95;;
33108;SDS011;19481;51.118;6.940;2024-01-30T05:01:06;2.70;;;1.30;;
33108;SDS011;19481;51.118;6.940;2024-01-30T05:06:08;1.83;;;1.30;;
33108;SDS011;19481;51.118;6.940;2024-01-30T05:11:11;1.48;;;1.13;;
33108;SDS011;19481;51.118;6.940;2024-01-30T05:16:13;2.85;;;1.80;;
33108;SDS011;19481;51.118;6.940;2024-01-30T05:21:14;1.33;;;1.20;;
33108;SDS011;19481;51.118;6.940;2024-01-30T05:26:17;2.72;;;1.58;;
33108;SDS011;19481;51.118;6.940;2024-01-30T05:31:19;3.45;;;1.33;;
33108;SDS011;19481;51.118;6.940;2024-01-30T05:36:21;1.63;;;1.08;;
33108;SDS011;19481;51.118;6.940;2024-01-30T05:41:24;1.42;;;1.33;;
33108;SDS011;19481;51.118;6.940;2024-01-30T05:46:25;2.42;;;1.67;;
33108;SDS011;19481;51.118;6.940;2024-01-30T05:51:27;2.42;;;1.30;;
33108;SDS011;19481;51.118;6.940;2024-01-30T05:56:30;1.58;;;1.13;;
33108;SDS011;19481;51.118;6.940;2024-01-30T06:01:32;3.03;;;1.42;;
33108;SDS011;19481;51.118;6.940;2024-01-30T06:06:34;1.33;;;1.15;;
33108;SDS011;19481;51.118;6.940;2024-01-30T06:11:37;1.55;;;1.38;;
33108;SDS011;19481;51.118;6.940;2024-01-30T06:16:39;2.22;;;1.38;;
33108;SDS011;19481;51.118;6.940;2024-01-30T06:21:40;1.30;;;1.13;;
33108;SDS011;19481;51.118;6.940;2024-01-30T06:26:43;1.52;;;1.42;;
33108;SDS011;19481;51.118;6.940;2024-01-30T06:31:45;1.17;;;1.08;;
33108;SDS011;19481;51.118;6.940;2024-01-30T06:36:47;2.85;;;1.67;;
33108;SDS011;19481;51.118;6.940;2024-01-30T06:41:50;1.60;;;1.50;;
33108;SDS011;19481;51.118;6.940;2024-01-30T06:46:51;3.67;;;1.38;;
33108;SDS011;19481;51.118;6.940;2024-01-30T06:51:53;1.33;;;1.20;;
33108;SDS011;19481;51.118;6.940;2024-01-30T06:56:56;1.60;;;1.50;;
33108;SDS011;19481;51.118;6.940;2024-01-30T07:01:58;1.83;;;1.40;;
33108;SDS011;19481;51.118;6.940;2024-01-30T07:06:59;2.38;;;1.45;;
33108;SDS011;19481;51.118;6.940;2024-01-30T07:12:02;1.77;;;1.42;;
33108;SDS011;19481;51.118;6.940;2024-01-30T07:17:04;2.03;;;1.25;;
33108;SDS011;19481;51.118;6.940;2024-01-30T07:22:07;1.50;;;1.10;;
33108;SDS011;19481;51.118;6.940;2024-01-30T07:27:10;1.95;;;1.33;;
33108;SDS011;19481;51.118;6.940;2024-01-30T07:32:12;1.50;;;1.40;;
33108;SDS011;19481;51.118;6.940;2024-01-30T07:37:14;1.20;;;1.10;;
33108;SDS011;19481;51.118;6.940;2024-01-30T07:42:17;1.98;;;1.42;;
33108;SDS011;19481;51.118;6.940;2024-01-30T07:47:18;1.55;;;1.23;;
33108;SDS011;19481;51.118;6.940;2024-01-30T07:52:20;2.13;;;1.58;;
33108;SDS011;19481;51.118;6.940;2024-01-30T07:57:23;1.33;;;1.23;;
33108;SDS011;19481;51.118;6.940;2024-01-30T08:02:25;2.08;;;1.50;;
33108;SDS011;19481;51.118;6.940;2024-01-30T08:07:26;2.30;;;1.52;;
33108;SDS011;19481;51.118;6.940;2024-01-30T08:12:31;1.70;;;1.58;;
33108;SDS011;19481;51.118;6.940;2024-01-30T08:17:32;5.70;;;1.48;;
33108;SDS011;19481;51.118;6.940;2024-01-30T08:22:34;3.28;;;1.70;;
33108;SDS011;19481;51.118;6.940;2024-01-30T08:27:37;1.50;;;1.30;;
33108;SDS011;19481;51.118;6.940;2024-01-30T08:32:39;2.47;;;1.42;;
33108;SDS011;19481;51.118;6.940;2024-01-30T08:37:40;1.85;;;1.50;;
33108;SDS011;19481;51.118;6.940;2024-01-30T08:42:43;1.83;;;1.08;;
33108;SDS011;19481;51.118;6.940;2024-01-30T08:47:45;3.15;;;1.45;;
33108;SDS011;19481;51.118;6.940;2024-01-30T08:52:47;4.32;;;1.17;;
33108;SDS011;19481;51.118;6.940;2024-01-30T08:57:50;1.65;;;1.25;;
33108;SDS011;19481;51.118;6.940;2024-01-30T09:02:52;1.38;;;1.10;;
33108;SDS011;19481;51.118;6.940;2024-01-30T09:07:54;1.95;;;1.73;;
33108;SDS011;19481;51.118;6.940;2024-01-30T09:12:57;1.60;;;1.50;;
33108;SDS011;19481;51.118;6.940;2024-01-30T09:17:58;1.65;;;1.55;;
33108;SDS011;19481;51.118;6.940;2024-01-30T09:23:00;1.42;;;1.33;;
33108;SDS011;19481;51.118;6.940;2024-01-30T09:28:03;1.75;;;1.40;;
33108;SDS011;19481;51.118;6.940;2024-01-30T09:33:05;1.48;;;1.38;;
33108;SDS011;19481;51.118;6.940;2024-01-30T09:38:07;1.15;;;1.05;;
33108;SDS011;19481;51.118;6.940;2024-01-30T09:43:10;1.88;;;1.65;;
33108;SDS011;19481;51.118;6.940;2024-01-30T09:48:16;1.92;;;1.30;;
33108;SDS011;19481;51.118;6.940;2024-01-30T09:53:18;3.35;;;1.55;;
33108;SDS011;19481;51.118;6.940;2024-01-30T09:58:21;5.50;;;1.73;;
33108;SDS011;19481;51.118;6.940;2024-01-30T10:03:23;1.70;;;1.60;;
33108;SDS011;19481;51.118;6.940;2024-01-30T10:08:25;2.13;;;1.52;;
33108;SDS011;19481;51.118;6.940;2024-01-30T10:13:29;2.15;;;1.80;;
33108;SDS011;19481;51.118;6.940;2024-01-30T10:18:31;1.88;;;1.73;;
33108;SDS011;19481;51.118;6.940;2024-01-30T10:23:33;2.70;;;1.83;;
33108;SDS011;19481;51.118;6.940;2024-01-30T10:28:36;3.50;;;1.58;;
33108;SDS011;19481;51.118;6.940;2024-01-30T10:33:38;2.63;;;1.70;;
33108;SDS011;19481;51.118;6.940;2024-01-30T10:38:39;2.38;;;1.52;;
33108;SDS011;19481;51.118;6.940;2024-01-30T10:43:47;2.85;;;1.88;;
33108;SDS011;19481;51.118;6.940;2024-01-30T10:48:56;1.95;;;1.77;;
33108;SDS011;19481;51.118;6.940;2024-01-30T10:53:59;1.70;;;1.60;;
33108;SDS011;19481;51.118;6.940;2024-01-30T10:59:03;2.28;;;1.83;;
33108;SDS011;19481;51.118;6.940;2024-01-30T11:04:05;3.70;;;1.63;;
33108;SDS011;19481;51.118;6.940;2024-01-30T11:09:10;3.67;;;1.73;;
33108;SDS011;19481;51.118;6.940;2024-01-30T11:14:14;1.73;;;1.63;;
33108;SDS011;19481;51.118;6.940;2024-01-30T11:19:22;1.73;;;1.63;;
33108;SDS011;19481;51.118;6.940;2024-01-30T11:24:24;3.28;;;1.55;;
33108;SDS011;19481;51.118;6.940;2024-01-30T11:29:28;2.42;;;1.88;;
33108;SDS011;19481;51.118;6.940;2024-01-30T11:34:29;2.10;;;1.83;;
33108;SDS011;19481;51.118;6.940;2024-01-30T11:39:31;1.42;;;1.33;;
33108;SDS011;19481;51.118;6.940;2024-01-30T11:44:34;2.13;;;1.50;;
33108;SDS011;19481;51.118;6.940;2024-01-30T11:49:36;1.70;;;1.40;;
33108;SDS011;19481;51.118;6.940;2024-01-30T11:54:39;1.80;;;1.60;;
33108;SDS011;19481;51.118;6.940;2024-01-30T11:59:42;1.38;;;1.27;;
33108;SDS011;19481;51.118;6.940;2024-01-30T12:04:44;5.68;;;1.80;;
33108;SDS011;19481;51.118;6.940;2024-01-30T12:09:51;2.03;;;1.60;;
33108;SDS011;19481;51.118;6.940;2024-01-30T12:14:55;2.53;;;1.70;;
33108;SDS011;19481;51.118;6.940;2024-01-30T12:20:04;1.63;;;1.40;;
33108;SDS011;19481;51.118;6.940;2024-01-30T12:25:07;3.10;;;2.08;;
33108;SDS011;19481;51.118;6.940;2024-01-30T12:30:12;2.55;;;1.70;;
33108;SDS011;19481;51.118;6.940;2024-01-30T12:35:15;3.95;;;1.55;;
33108;SDS011;19481;51.118;6.940;2024-01-30T12:40:19;3.42;;;1.73;;
33108;SDS011;19481;51.118;6.940;2024-01-30T12:45:22;2.33;;;1.50;;
33108;SDS011;19481;51.118;6.940;2024-01-30T12:50:23;1.83;;;1.55;;
33108;SDS011;19481;51.118;6.940;2024-01-30T12:55:25;8.43;;;1.55;;
33108;SDS011;19481;51.118;6.940;2024-01-30T13:00:29;3.95;;;1.77;;
33108;SDS011;19481;51.118;6.940;2024-01-30T13:05:31;1.45;;;1.35;;
33108;SDS011;19481;51.118;6.940;2024-01-30T13:10:33;1.65;;;1.17;;
33108;SDS011;19481;51.118;6.940;2024-01-30T13:15:35;1.80;;;1.30;;
33108;SDS011;19481;51.118;6.940;2024-01-30T13:20:37;3.15;;;1.20;;
33108;SDS011;19481;51.118;6.940;2024-01-30T13:25:39;2.13;;;1.10;;
33108;SDS011;19481;51.118;6.940;2024-01-30T13:30:42;1.20;;;1.10;;
33108;SDS011;19481;51.118;6.940;2024-01-30T13:35:44;2.25;;;1.27;;
33108;SDS011;19481;51.118;6.940;2024-01-30T13:40:46;2.35;;;1.90;;
33108;SDS011;19481;51.118;6.940;2024-01-30T13:45:49;2.03;;;1.50;;
33108;SDS011;19481;51.118;6.940;2024-01-30T13:50:50;1.65;;;1.33;;
33108;SDS011;19481;51.118;6.940;2024-01-30T13:55:53;1.30;;;1.15;;
33108;SDS011;19481;51.118;6.940;2024-01-30T14:00:56;1.25;;;1.15;;
33108;SDS011;19481;51.118;6.940;2024-01-30T14:05:58;1.92;;;1.30;;
33108;SDS011;19481;51.118;6.940;2024-01-30T14:11:00;1.27;;;1.17;;
33108;SDS011;19481;51.118;6.940;2024-01-30T14:16:03;1.27;;;1.00;;
33108;SDS011;19481;51.118;6.940;2024-01-30T14:21:05;1.33;;;1.23;;
33108;SDS011;19481;51.118;6.940;2024-01-30T14:26:08;2.35;;;1.20;;
33108;SDS011;19481;51.118;6.940;2024-01-30T14:31:11;4.80;;;1.70;;
33108;SDS011;19481;51.118;6.940;2024-01-30T14:36:12;1.25;;;1.15;;
33108;SDS011;19481;51.118;6.940;2024-01-30T14:41:14;1.40;;;1.15;;
33108;SDS011;19481;51.118;6.940;2024-01-30T14:46:17;2.10;;;1.40;;
33108;SDS011;19481;51.118;6.940;2024-01-30T14:51:18;2.13;;;1.23;;
33108;SDS011;19481;51.118;6.940;2024-01-30T14:56:20;2.22;;;1.33;;
33108;SDS011;19481;51.118;6.940;2024-01-30T15:01:23;1.33;;;1.20;;
33108;SDS011;19481;51.118;6.940;2024-01-30T15:06:25;1.63;;;1.52;;
33108;SDS011;19481;51.118;6.940;2024-01-30T15:11:26;1.77;;;1.30;;
33108;SDS011;19481;51.118;6.940;2024-01-30T15:16:29;1.60;;;1.25;;
33108;SDS011;19481;51.118;6.940;2024-01-30T15:21:31;1.80;;;1.38;;
33108;SDS011;19481;51.118;6.940;2024-01-30T15:26:33;2.42;;;1.52;;
33108;SDS011;19481;51.118;6.940;2024-01-30T15:31:36;2.47;;;1.42;;
33108;SDS011;19481;51.118;6.940;2024-01-30T15:36:37;2.83;;;1.48;;
33108;SDS011;19481;51.118;6.940;2024-01-30T15:41:39;5.13;;;1.70;;
33108;SDS011;19481;51.118;6.940;2024-01-30T15:46:42;1.98;;;1.65;;
33108;SDS011;19481;51.118;6.940;2024-01-30T15:51:44;2.90;;;1.60;;
33108;SDS011;19481;51.118;6.940;2024-01-30T15:56:45;1.55;;;1.10;;
33108;SDS011;19481;51.118;6.940;2024-01-30T16:01:48;1.80;;;1.20;;
33108;SDS011;19481;51.118;6.940;2024-01-30T16:06:50;1.00;;;1.00;;
33108;SDS011;19481;51.118;6.940;2024-01-30T16:11:51;0.75;;;0.75;;
33108;SDS011;19481;51.118;6.940;2024-01-30T16:16:54;0.80;;;0.80;;
33108;SDS011;19481;51.118;6.940;2024-01-30T16:21:56;0.80;;;0.80;;
33108;SDS011;19481;51.118;6.940;2024-01-30T16:26:57;2.15;;;0.85;;
33108;SDS011;19481;51.118;6.940;2024-01-30T16:32:00;0.80;;;0.80;;
33108;SDS011;19481;51.118;6.940;2024-01-30T16:37:02;0.70;;;0.70;;
33108;SDS011;19481;51.118;6.940;2024-01-30T16:42:04;0.73;;;0.73;;
33108;SDS011;19481;51.118;6.940;2024-01-30T16:47:08;0.68;;;0.68;;
33108;SDS011;19481;51.118;6.940;2024-01-30T16:52:10;0.60;;;0.60;;
33108;SDS011;19481;51.118;6.940;2024-01-30T16:57:11;0.60;;;0.60;;
33108;SDS011;19481;51.118;6.940;2024-01-30T17:02:14;0.80;;;0.80;;
33108;SDS011;19481;51.118;6.940;2024-01-30T17:07:16;0.60;;;0.60;;
33108;SDS011;19481;51.118;6.940;2024-01-30T17:12:17;0.50;;;0.50;;
33108;SDS011;19481;51.118;6.940;2024-01-30T17:17:20;0.52;;;0.52;;
33108;SDS011;19481;51.118;6.940;2024-01-30T17:22:22;0.77;;;0.60;;
33108;SDS011;19481;51.118;6.940;2024-01-30T17:27:24;1.42;;;0.70;;
33108;SDS011;19481;51.118;6.940;2024-01-30T17:32:26;0.63;;;0.63;;
33108;SDS011;19481;51.118;6.940;2024-01-30T17:37:28;0.80;;;0.80;;
33108;SDS011;19481;51.118;6.940;2024-01-30T17:42:30;0.60;;;0.60;;
33108;SDS011;19481;51.118;6.940;2024-01-30T17:47:33;0.60;;;0.60;;
33108;SDS011;19481;51.118;6.940;2024-01-30T17:52:35;1.02;;;0.70;;
33108;SDS011;19481;51.118;6.940;2024-01-30T17:57:37;0.70;;;0.70;;
33108;SDS011;19481;51.118;6.940;2024-01-30T18:02:40;1.42;;;0.70;;
33108;SDS011;19481;51.118;6.940;2024-01-30T18:07:42;0.60;;;0.60;;
33108;SDS011;19481;51.118;6.940;2024-01-30T18:12:44;0.60;;;0.60;;
33108;SDS011;19481;51.118;6.940;2024-01-30T18:17:47;5.68;;;0.70;;
33108;SDS011;19481;51.118;6.940;2024-01-30T18:22:49;1.20;;;0.80;;
33108;SDS011;19481;51.118;6.940;2024-01-30T18:27:50;1.15;;;0.60;;
33108;SDS011;19481;51.118;6.940;2024-01-30T18:32:53;0.63;;;0.63;;
33108;SDS011;19481;51.118;6.940;2024-01-30T18:37:55;0.68;;;0.68;;
33108;SDS011;19481;51.118;6.940;2024-01-30T18:42:56;0.60;;;0.60;;
33108;SDS011;19481;51.118;6.940;2024-01-30T18:48:01;0.68;;;0.68;;
33108;SDS011;19481;51.118;6.940;2024-01-30T18:53:03;4.32;;;0.90;;
33108;SDS011;19481;51.118;6.940;2024-01-30T18:58:05;0.82;;;0.82;;
33108;SDS011;19481;51.118;6.940;2024-01-30T19:03:08;1.42;;;0.80;;
33108;SDS011;19481;51.118;6.940;2024-01-30T19:08:10;0.80;;;0.80;;
33108;SDS011;19481;51.118;6.940;2024-01-30T19:13:13;1.23;;;0.93;;
33108;SDS011;19481;51.118;6.940;2024-01-30T19:18:16;2.50;;;0.80;;
33108;SDS011;19481;51.118;6.940;2024-01-30T19:23:17;0.85;;;0.82;;
33108;SDS011;19481;51.118;6.940;2024-01-30T19:28:19;0.93;;;0.93;;
33108;SDS011;19481;51.118;6.940;2024-01-30T19:33:22;0.98;;;0.98;;
33108;SDS011;19481;51.118;6.940;2024-01-30T19:38:23;2.92;;;0.73;;
33108;SDS011;19481;51.118;6.940;2024-01-30T19:43:25;0.90;;;0.90;;
33108;SDS011;19481;51.118;6.940;2024-01-30T19:48:29;0.90;;;0.90;;
33108;SDS011;19481;51.118;6.940;2024-01-30T19:53:30;4.53;;;0.90;;
33108;SDS011;19481;51.118;6.940;2024-01-30T19:58:32;0.88;;;0.88;;
33108;SDS011;19481;51.118;6.940;2024-01-30T20:03:35;0.73;;;0.70;;
33108;SDS011;19481;51.118;6.940;2024-01-30T20:08:37;0.70;;;0.70;;
33108;SDS011;19481;51.118;6.940;2024-01-30T20:13:39;2.38;;;0.85;;
33108;SDS011;19481;51.118;6.940;2024-01-30T20:18:42;0.75;;;0.75;;
33108;SDS011;19481;51.118;6.940;2024-01-30T20:23:43;0.90;;;0.90;;
33108;SDS011;19481;51.118;6.940;2024-01-30T20:28:45;0.63;;;0.63;;
33108;SDS011;19481;51.118;6.940;2024-01-30T20:33:49;0.80;;;0.80;;
33108;SDS011;19481;51.118;6.940;2024-01-30T20:38:51;0.80;;;0.80;;
33108;SDS011;19481;51.118;6.940;2024-01-30T20:43:52;0.95;;;0.82;;
33108;SDS011;19481;51.118;6.940;2024-01-30T20:48:55;0.80;;;0.73;;
33108;SDS011;19481;51.118;6.940;2024-01-30T20:53:57;0.75;;;0.75;;
33108;SDS011;19481;51.118;6.940;2024-01-30T20:58:58;0.80;;;0.80;;
33108;SDS011;19481;51.118;6.940;2024-01-30T21:04:01;0.98;;;0.70;;
33108;SDS011;19481;51.118;6.940;2024-01-30T21:09:03;0.68;;;0.68;;
33108;SDS011;19481;51.118;6.940;2024-01-30T21:14:06;0.73;;;0.73;;
33108;SDS011;19481;51.118;6.940;2024-01-30T21:19:09;0.70;;;0.70;;
33108;SDS011;19481;51.118;6.940;2024-01-30T21:24:11;0.73;;;0.73;;
33108;SDS011;19481;51.118;6.940;2024-01-30T21:29:12;0.80;;;0.80;;
33108;SDS011;19481;51.118;6.940;2024-01-30T21:34:15;0.98;;;0.65;;
33108;SDS011;19481;51.118;6.940;2024-01-30T21:39:17;0.55;;;0.55;;
33108;SDS011;19481;51.118;6.940;2024-01-30T21:44:18;0.70;;;0.70;;
33108;SDS011;19481;51.118;6.940;2024-01-30T21:49:21;0.40;;;0.40;;
33108;SDS011;19481;51.118;6.940;2024-01-30T21:54:23;1.08;;;0.88;;
33108;SDS011;19481;51.118;6.940;2024-01-30T21:59:25;0.57;;;0.57;;
33108;SDS011;19481;51.118;6.940;2024-01-30T22:04:28;1.00;;;1.00;;
33108;SDS011;19481;51.118;6.940;2024-01-30T22:09:30;2.17;;;0.82;;
33108;SDS011;19481;51.118;6.940;2024-01-30T22:14:32;0.80;;;0.80;;
33108;SDS011;19481;51.118;6.940;2024-01-30T22:19:35;0.93;;;0.90;;
33108;SDS011;19481;51.118;6.940;2024-01-30T22:24:36;2.75;;;1.23;;
33108;SDS011;19481;51.118;6.940;2024-01-30T22:29:38;0.95;;;0.95;;
33108;SDS011;19481;51.118;6.940;2024-01-30T22:34:42;1.52;;;1.20;;
33108;SDS011;19481;51.118;6.940;2024-01-30T22:39:44;1.05;;;0.98;;
33108;SDS011;19481;51.118;6.940;2024-01-30T22:44:45;1.02;;;0.93;;
33108;SDS011;19481;51.118;6.940;2024-01-30T22:49:48;1.48;;;1.30;;
33108;SDS011;19481;51.118;6.940;2024-01-30T22:54:50;2.25;;;1.20;;
33108;SDS011;19481;51.118;6.940;2024-01-30T22:59:52;1.40;;;1.00;;
33108;SDS011;19481;51.118;6.940;2024-01-30T23:04:55;2.80;;;1.23;;
33108;SDS011;19481;51.118;6.940;2024-01-30T23:09:56;2.40;;;1.02;;
33108;SDS011;19481;51.118;6.940;2024-01-30T23:14:58;1.00;;;0.82;;
33108;SDS011;19481;51.118;6.940;2024-01-30T23:20:01;1.58;;;1.20;;
33108;SDS011;19481;51.118;6.940;2024-01-30T23:25:05;1.40;;;1.08;;
33108;SDS011;19481;51.118;6.940;2024-01-30T23:30:07;1.83;;;1.10;;
33108;SDS011;19481;51.118;6.940;2024-01-30T23:35:11;2.83;;;1.20;;
33108;SDS011;19481;51.118;6.940;2024-01-30T23:40:13;2.20;;;1.38;;
33108;SDS011;19481;51.118;6.940;2024-01-30T23:45:14;2.40;;;1.30;;
33108;SDS011;19481;51.118;6.940;2024-01-30T23:50:17;4.72;;;1.15;;
33108;SDS011;19481;51.118;6.940;2024-01-30T23:55:19;1.50;;;1.27;;
